createdAt,value
2017-08-07T00:01:55.294Z,3.92
2017-08-07T00:04:22.955Z,18.73
2017-08-07T00:06:50.672Z,4.22
2017-08-07T00:09:18.333Z,3.70
2017-08-07T00:11:45.973Z,3.90
2017-08-07T00:14:13.604Z,3.67
2017-08-07T00:16:41.281Z,4.05
2017-08-07T00:19:08.925Z,3.83
2017-08-07T00:21:37.539Z,4.72
2017-08-07T00:24:05.198Z,5.05
2017-08-07T00:26:33.605Z,3.62
2017-08-07T00:29:01.264Z,4.35
2017-08-07T00:31:28.930Z,4.55
2017-08-07T00:33:56.663Z,3.83
2017-08-07T00:36:24.324Z,3.78
2017-08-07T00:38:52.007Z,7.30
2017-08-07T00:41:19.711Z,3.05
2017-08-07T00:43:47.396Z,3.25
2017-08-07T00:46:15.048Z,3.60
2017-08-07T00:48:42.714Z,3.95
2017-08-07T00:51:10.395Z,4.15
2017-08-07T00:53:38.018Z,3.75
2017-08-07T00:56:05.660Z,4.32
2017-08-07T00:58:33.328Z,3.40
2017-08-07T01:01:01.057Z,4.12
2017-08-07T01:03:28.710Z,4.28
2017-08-07T01:05:56.372Z,5.03
2017-08-07T01:08:24.000Z,4.65
2017-08-07T01:10:51.638Z,5.72
2017-08-07T01:13:19.316Z,4.75
2017-08-07T01:15:46.949Z,3.90
2017-08-07T01:18:14.594Z,4.30
2017-08-07T01:20:42.269Z,4.50
2017-08-07T01:23:10.009Z,4.65
2017-08-07T01:25:37.642Z,4.65
2017-08-07T01:28:05.323Z,3.42
2017-08-07T01:30:33.909Z,4.65
2017-08-07T01:33:02.475Z,6.30
2017-08-07T01:35:31.092Z,5.72
2017-08-07T01:37:58.735Z,5.03
2017-08-07T01:40:26.375Z,4.60
2017-08-07T01:42:54.039Z,4.20
2017-08-07T01:45:21.668Z,4.78
2017-08-07T01:47:49.338Z,4.35
2017-08-07T01:50:23.094Z,6.65
2017-08-07T01:52:50.741Z,5.55
2017-08-07T01:55:18.408Z,4.32
2017-08-07T01:57:46.037Z,4.68
2017-08-07T02:00:13.706Z,4.97
2017-08-07T02:02:41.363Z,3.72
2017-08-07T02:05:09.094Z,4.65
2017-08-07T02:07:36.785Z,4.75
2017-08-07T02:10:05.237Z,4.18
2017-08-07T02:12:32.868Z,4.70
2017-08-07T02:15:00.564Z,4.05
2017-08-07T02:17:28.194Z,5.25
2017-08-07T02:19:56.624Z,5.07
2017-08-07T02:22:24.288Z,5.10
2017-08-07T02:24:51.950Z,4.10
2017-08-07T02:27:20.382Z,5.25
2017-08-07T02:29:48.060Z,4.10
2017-08-07T02:32:16.488Z,4.70
2017-08-07T02:34:44.120Z,4.30
2017-08-07T02:37:11.752Z,4.97
2017-08-07T02:39:39.478Z,4.68
2017-08-07T02:42:07.132Z,4.57
2017-08-07T02:44:35.543Z,3.55
2017-08-07T02:47:03.215Z,5.43
2017-08-07T02:49:31.032Z,4.75
2017-08-07T02:51:58.684Z,5.10
2017-08-07T02:54:26.349Z,4.53
2017-08-07T02:56:53.981Z,5.05
2017-08-07T02:59:21.634Z,4.60
2017-08-07T03:01:49.314Z,5.35
2017-08-07T03:04:16.962Z,6.07
2017-08-07T03:06:44.614Z,5.62
2017-08-07T03:09:12.285Z,5.18
2017-08-07T03:11:40.033Z,4.35
2017-08-07T03:14:07.682Z,4.55
2017-08-07T03:16:35.343Z,5.12
2017-08-07T03:19:02.971Z,5.60
2017-08-07T03:21:30.689Z,5.78
2017-08-07T03:23:59.136Z,4.57
2017-08-07T03:26:26.763Z,4.45
2017-08-07T03:28:54.391Z,4.37
2017-08-07T03:31:22.051Z,4.30
2017-08-07T03:33:49.935Z,4.25
2017-08-07T03:36:17.577Z,4.12
2017-08-07T03:38:45.246Z,4.47
2017-08-07T03:41:13.646Z,4.40
2017-08-07T03:43:41.276Z,5.40
2017-08-07T03:46:08.990Z,5.18
2017-08-07T03:48:36.676Z,4.93
2017-08-07T03:51:04.336Z,4.60
2017-08-07T03:53:32.006Z,5.43
2017-08-07T03:55:59.679Z,5.00
2017-08-07T03:58:27.303Z,4.12
2017-08-07T04:00:55.039Z,5.35
2017-08-07T04:03:22.662Z,4.75
2017-08-07T04:05:50.342Z,5.03
2017-08-07T04:08:18.018Z,5.10
2017-08-07T04:10:45.678Z,3.87
2017-08-07T04:13:14.068Z,4.45
2017-08-07T04:15:41.723Z,5.50
2017-08-07T04:18:09.411Z,6.32
2017-08-07T04:20:37.035Z,5.40
2017-08-07T04:23:04.686Z,6.00
2017-08-07T04:25:32.339Z,4.85
2017-08-07T04:28:00.109Z,5.03
2017-08-07T04:30:27.790Z,4.30
2017-08-07T04:32:55.415Z,4.78
2017-08-07T04:35:23.850Z,5.85
2017-08-07T04:37:51.510Z,5.35
2017-08-07T04:40:19.152Z,4.40
2017-08-07T04:42:46.815Z,4.28
2017-08-07T04:45:14.463Z,6.20
2017-08-07T04:47:42.125Z,5.55
2017-08-07T04:50:10.572Z,4.15
2017-08-07T04:52:38.223Z,5.07
2017-08-07T04:55:05.884Z,4.12
2017-08-07T04:57:35.999Z,4.57
2017-08-07T05:00:03.674Z,4.22
2017-08-07T05:02:31.301Z,4.82
2017-08-07T05:04:58.997Z,4.45
2017-08-07T05:07:26.748Z,5.00
2017-08-07T05:09:54.388Z,5.45
2017-08-07T05:12:22.084Z,4.93
2017-08-07T05:14:50.520Z,4.97
2017-08-07T05:17:18.149Z,5.15
2017-08-07T05:19:45.820Z,5.20
2017-08-07T05:22:13.444Z,4.10
2017-08-07T05:24:41.113Z,4.60
2017-08-07T05:27:08.749Z,4.55
2017-08-07T05:29:36.377Z,4.78
2017-08-07T05:32:04.035Z,4.65
2017-08-07T05:34:31.666Z,4.30
2017-08-07T05:36:59.411Z,4.37
2017-08-07T05:39:27.041Z,5.55
2017-08-07T05:41:54.695Z,3.90
2017-08-07T05:44:22.376Z,4.90
2017-08-07T05:46:52.778Z,4.95
2017-08-07T05:49:20.435Z,5.53
2017-08-07T05:51:48.105Z,7.55
2017-08-07T05:54:15.749Z,9.82
2017-08-07T05:56:43.524Z,4.40
2017-08-07T05:59:12.169Z,5.68
2017-08-07T06:01:40.707Z,4.60
2017-08-07T06:04:08.344Z,4.37
2017-08-07T06:06:36.022Z,5.43
2017-08-07T06:09:03.701Z,4.05
2017-08-07T06:11:31.325Z,5.70
2017-08-07T06:13:59.033Z,3.50
2017-08-07T06:16:26.684Z,3.10
2017-08-07T06:18:54.301Z,4.13
2017-08-07T06:21:21.940Z,2.70
2017-08-07T06:23:50.312Z,2.80
2017-08-07T06:26:18.013Z,3.03
2017-08-07T06:28:45.627Z,3.17
2017-08-07T06:31:13.240Z,2.83
2017-08-07T06:33:41.685Z,2.90
2017-08-07T06:36:10.063Z,2.30
2017-08-07T06:38:37.715Z,2.50
2017-08-07T06:41:05.344Z,4.40
2017-08-07T06:43:32.957Z,2.30
2017-08-07T06:46:00.725Z,2.43
2017-08-07T06:48:28.332Z,2.50
2017-08-07T06:50:55.964Z,2.30
2017-08-07T06:53:23.576Z,2.20
2017-08-07T06:55:51.191Z,2.50
2017-08-07T06:58:18.819Z,2.33
2017-08-07T07:00:46.468Z,2.17
2017-08-07T07:03:14.100Z,2.60
2017-08-07T07:05:41.717Z,2.77
2017-08-07T07:08:10.114Z,2.27
2017-08-07T07:10:37.747Z,3.13
2017-08-07T07:13:05.361Z,2.07
2017-08-07T07:15:33.002Z,2.03
2017-08-07T07:18:00.677Z,2.20
2017-08-07T07:20:29.101Z,2.13
2017-08-07T07:22:56.750Z,1.80
2017-08-07T07:25:24.378Z,1.70
2017-08-07T07:27:52.043Z,1.93
2017-08-07T07:30:19.752Z,1.90
2017-08-07T07:32:47.364Z,2.20
2017-08-07T07:35:15.765Z,1.90
2017-08-07T07:37:43.386Z,1.60
2017-08-07T07:40:11.052Z,1.67
2017-08-07T07:42:38.687Z,2.67
2017-08-07T07:45:06.290Z,1.47
2017-08-07T07:47:33.932Z,2.20
2017-08-07T07:50:01.580Z,2.33
2017-08-07T07:52:29.238Z,1.60
2017-08-07T07:54:56.851Z,1.50
2017-08-07T07:57:24.469Z,1.60
2017-08-07T07:59:52.123Z,1.40
2017-08-07T08:02:19.817Z,1.73
2017-08-07T08:04:47.451Z,2.03
2017-08-07T08:07:15.061Z,2.60
2017-08-07T08:09:42.660Z,1.73
2017-08-07T08:12:10.305Z,1.60
2017-08-07T08:14:37.904Z,1.60
2017-08-07T08:17:05.545Z,1.53
2017-08-07T08:19:33.166Z,1.20
2017-08-07T08:22:01.562Z,2.50
2017-08-07T08:24:29.199Z,1.90
2017-08-07T08:26:56.809Z,2.13
2017-08-07T08:29:24.443Z,1.30
2017-08-07T08:31:52.040Z,2.40
2017-08-07T08:34:19.680Z,1.43
2017-08-07T08:36:47.330Z,2.70
2017-08-07T08:39:14.934Z,1.30
2017-08-07T08:41:42.581Z,1.30
2017-08-07T08:44:10.194Z,1.93
2017-08-07T08:46:37.790Z,1.43
2017-08-07T08:49:06.221Z,2.40
2017-08-07T08:51:33.829Z,1.37
2017-08-07T08:54:01.467Z,1.43
2017-08-07T08:56:29.074Z,1.23
2017-08-07T08:58:56.694Z,1.20
2017-08-07T09:01:24.331Z,3.20
2017-08-07T09:03:51.954Z,1.30
2017-08-07T09:06:19.626Z,1.40
2017-08-07T09:08:47.235Z,1.37
2017-08-07T09:11:14.836Z,1.37
2017-08-07T09:13:42.467Z,1.00
2017-08-07T09:16:10.119Z,1.70
2017-08-07T09:18:37.771Z,1.20
2017-08-07T09:21:05.376Z,1.30
2017-08-07T09:23:32.964Z,1.70
2017-08-07T09:26:00.709Z,1.30
2017-08-07T09:28:28.316Z,1.73
2017-08-07T09:30:55.946Z,1.40
2017-08-07T09:33:24.325Z,1.37
2017-08-07T09:35:51.957Z,1.27
2017-08-07T09:38:19.665Z,1.13
2017-08-07T09:40:47.268Z,2.63
2017-08-07T09:43:14.903Z,1.53
2017-08-07T09:45:42.529Z,2.90
2017-08-07T09:48:10.181Z,2.40
2017-08-07T09:50:39.116Z,1.20
2017-08-07T09:53:06.783Z,1.83
2017-08-07T09:55:34.389Z,2.20
2017-08-07T09:58:02.033Z,1.77
2017-08-07T10:00:29.893Z,1.40
2017-08-07T10:02:57.496Z,1.37
2017-08-07T10:05:25.145Z,2.80
2017-08-07T10:07:53.524Z,1.50
2017-08-07T10:10:21.157Z,1.73
2017-08-07T10:12:49.704Z,1.37
2017-08-07T10:15:17.309Z,1.37
2017-08-07T10:17:44.957Z,1.87
2017-08-07T10:20:12.556Z,1.93
2017-08-07T10:22:41.074Z,1.20
2017-08-07T10:25:08.677Z,1.30
2017-08-07T10:27:36.314Z,1.23
2017-08-07T10:30:04.730Z,1.93
2017-08-07T10:32:32.343Z,1.20
2017-08-07T10:35:00.029Z,2.80
2017-08-07T10:37:27.644Z,1.80
2017-08-07T10:39:55.252Z,1.40
2017-08-07T10:42:23.667Z,1.43
2017-08-07T10:44:51.277Z,1.57
2017-08-07T10:47:18.920Z,1.20
2017-08-07T10:49:46.617Z,1.60
2017-08-07T10:52:14.236Z,1.63
2017-08-07T10:54:41.893Z,1.63
2017-08-07T10:57:09.637Z,1.20
2017-08-07T10:59:37.297Z,1.97
2017-08-07T11:02:04.931Z,1.40
2017-08-07T11:04:32.548Z,1.33
2017-08-07T11:07:01.091Z,1.47
2017-08-07T11:09:28.705Z,1.50
2017-08-07T11:11:56.344Z,1.77
2017-08-07T11:14:23.949Z,1.73
2017-08-07T11:16:52.327Z,2.03
2017-08-07T11:19:20.064Z,1.60
2017-08-07T11:21:48.442Z,1.60
2017-08-07T11:24:17.238Z,1.70
2017-08-07T11:26:44.852Z,1.07
2017-08-07T11:29:13.223Z,1.77
2017-08-07T11:31:41.001Z,1.30
2017-08-07T11:34:08.777Z,1.77
2017-08-07T11:36:36.425Z,1.27
2017-08-07T11:39:04.037Z,1.73
2017-08-07T11:41:31.640Z,1.30
2017-08-07T11:43:59.271Z,1.60
2017-08-07T11:46:26.904Z,1.50
2017-08-07T11:48:54.550Z,1.67
2017-08-07T11:51:22.169Z,1.47
2017-08-07T11:53:49.841Z,1.67
2017-08-07T11:56:17.494Z,1.80
2017-08-07T11:58:45.090Z,2.70
2017-08-07T12:01:13.500Z,1.90
2017-08-07T12:03:41.892Z,1.40
2017-08-07T12:06:09.585Z,2.10
2017-08-07T12:08:37.220Z,1.80
2017-08-07T12:11:04.832Z,2.13
2017-08-07T12:13:32.491Z,1.40
2017-08-07T12:16:01.499Z,1.40
2017-08-07T12:18:29.218Z,2.10
2017-08-07T12:20:57.623Z,1.60
2017-08-07T12:23:25.256Z,1.57
2017-08-07T12:25:52.919Z,1.97
2017-08-07T12:28:21.022Z,1.70
2017-08-07T12:30:49.576Z,2.20
2017-08-07T12:33:17.282Z,2.70
2017-08-07T12:35:44.902Z,1.83
2017-08-07T12:38:12.564Z,1.83
2017-08-07T12:40:40.177Z,1.70
2017-08-07T12:43:07.778Z,1.50
2017-08-07T12:45:35.405Z,1.90
2017-08-07T12:48:03.023Z,1.27
2017-08-07T12:50:31.434Z,1.47
2017-08-07T12:52:59.646Z,2.00
2017-08-07T12:55:28.034Z,1.60
2017-08-07T12:57:55.681Z,1.90
2017-08-07T13:00:23.305Z,2.13
2017-08-07T13:02:51.048Z,1.73
2017-08-07T13:05:19.510Z,1.57
2017-08-07T13:07:47.899Z,1.57
2017-08-07T13:10:15.555Z,1.67
2017-08-07T13:12:43.158Z,1.67
2017-08-07T13:15:10.914Z,1.70
2017-08-07T13:17:38.536Z,2.30
2017-08-07T13:20:07.125Z,1.73
2017-08-07T13:22:35.540Z,1.40
2017-08-07T13:25:03.159Z,2.13
2017-08-07T13:27:30.926Z,1.87
2017-08-07T13:29:58.571Z,1.77
2017-08-07T13:32:26.178Z,1.50
2017-08-07T13:34:53.821Z,2.70
2017-08-07T13:37:21.430Z,1.47
2017-08-07T13:39:49.088Z,1.60
2017-08-07T13:42:17.525Z,2.00
2017-08-07T13:44:45.145Z,1.83
2017-08-07T13:47:13.554Z,1.53
2017-08-07T13:49:41.161Z,1.50
2017-08-07T13:52:08.809Z,1.50
2017-08-07T13:54:36.552Z,1.40
2017-08-07T13:57:04.965Z,1.70
2017-08-07T13:59:32.622Z,1.30
2017-08-07T14:02:00.246Z,1.47
2017-08-07T14:04:27.876Z,1.47
2017-08-07T14:06:55.485Z,2.00
2017-08-07T14:09:23.100Z,1.20
2017-08-07T14:11:50.742Z,1.30
2017-08-07T14:14:18.418Z,1.60
2017-08-07T14:16:46.058Z,1.50
2017-08-07T14:19:13.705Z,1.20
2017-08-07T14:21:41.327Z,2.00
2017-08-07T14:24:09.042Z,1.33
2017-08-07T14:26:36.684Z,1.40
2017-08-07T14:29:04.337Z,1.10
2017-08-07T14:31:31.971Z,1.50
2017-08-07T14:33:59.643Z,3.00
2017-08-07T14:36:27.294Z,3.43
2017-08-07T14:38:54.897Z,2.13
2017-08-07T14:41:22.580Z,1.20
2017-08-07T14:43:50.198Z,3.57
2017-08-07T14:46:18.883Z,1.47
2017-08-07T14:48:47.511Z,1.50
2017-08-07T14:51:15.178Z,1.40
2017-08-07T14:53:42.811Z,1.30
2017-08-07T14:56:10.624Z,2.10
2017-08-07T14:58:39.254Z,1.47
2017-08-07T15:01:08.116Z,1.40
2017-08-07T15:03:35.839Z,1.37
2017-08-07T15:06:03.558Z,1.90
2017-08-07T15:08:31.444Z,1.50
2017-08-07T15:10:59.088Z,1.60
2017-08-07T15:13:27.547Z,1.57
2017-08-07T15:15:55.179Z,1.73
2017-08-07T15:18:23.012Z,1.53
2017-08-07T15:20:51.558Z,1.40
2017-08-07T15:23:19.177Z,1.20
2017-08-07T15:25:47.354Z,1.73
2017-08-07T15:28:15.060Z,1.40
2017-08-07T15:30:42.726Z,2.07
2017-08-07T15:33:10.325Z,1.47
2017-08-07T15:35:38.042Z,1.40
2017-08-07T15:38:06.140Z,1.50
2017-08-07T15:40:34.837Z,1.40
2017-08-07T15:43:02.508Z,2.13
2017-08-07T15:45:30.161Z,1.60
2017-08-07T15:47:58.549Z,1.77
2017-08-07T15:50:26.201Z,4.13
2017-08-07T15:52:53.960Z,1.60
2017-08-07T15:55:21.640Z,1.63
2017-08-07T15:57:49.275Z,1.60
2017-08-07T16:00:17.030Z,1.77
2017-08-07T16:02:45.051Z,1.60
2017-08-07T16:05:12.981Z,5.13
2017-08-07T16:07:40.697Z,2.30
2017-08-07T16:10:08.337Z,1.70
2017-08-07T16:12:36.109Z,1.63
2017-08-07T16:15:03.758Z,2.00
2017-08-07T16:17:31.392Z,2.13
2017-08-07T16:19:59.074Z,1.60
2017-08-07T16:22:26.848Z,1.33
2017-08-07T16:24:55.098Z,1.50
2017-08-07T16:27:22.760Z,2.23
2017-08-07T16:30:01.158Z,1.77
2017-08-07T16:32:28.798Z,1.97
2017-08-07T16:34:56.557Z,2.40
2017-08-07T16:37:24.173Z,2.17
2017-08-07T16:39:51.827Z,2.53
2017-08-07T16:42:19.614Z,1.63
2017-08-07T16:44:47.275Z,2.10
2017-08-07T16:47:14.880Z,1.60
2017-08-07T16:49:42.595Z,1.80
2017-08-07T16:52:10.311Z,3.00
2017-08-07T16:54:37.960Z,1.83
2017-08-07T16:57:05.615Z,1.70
2017-08-07T16:59:33.237Z,1.67
2017-08-07T17:02:01.099Z,2.03
2017-08-07T17:04:28.737Z,3.23
2017-08-07T17:06:56.383Z,1.80
2017-08-07T17:09:24.037Z,1.67
2017-08-07T17:11:51.660Z,4.00
2017-08-07T17:14:19.659Z,1.67
2017-08-07T17:16:47.312Z,1.90
2017-08-07T17:19:15.718Z,3.13
2017-08-07T17:21:43.360Z,1.63
2017-08-07T17:24:11.061Z,1.70
2017-08-07T17:26:38.672Z,1.90
2017-08-07T17:29:06.321Z,1.60
2017-08-07T17:31:33.951Z,1.53
2017-08-07T17:34:01.601Z,2.10
2017-08-07T17:36:29.217Z,1.90
2017-08-07T17:38:57.595Z,2.50
2017-08-07T17:41:25.244Z,1.93
2017-08-07T17:43:52.870Z,1.70
2017-08-07T17:46:20.716Z,2.10
2017-08-07T17:48:48.326Z,2.93
2017-08-07T17:51:15.938Z,1.90
2017-08-07T17:53:43.589Z,2.33
2017-08-07T17:56:11.275Z,1.87
2017-08-07T17:58:38.949Z,4.53
2017-08-07T18:01:06.733Z,3.47
2017-08-07T18:03:34.389Z,2.00
2017-08-07T18:06:02.052Z,2.07
2017-08-07T18:08:29.804Z,1.90
2017-08-07T18:10:57.461Z,2.60
2017-08-07T18:13:25.079Z,2.20
2017-08-07T18:15:52.704Z,2.07
2017-08-07T18:18:20.365Z,2.37
2017-08-07T18:20:47.971Z,2.13
2017-08-07T18:23:16.378Z,2.03
2017-08-07T18:25:43.991Z,2.27
2017-08-07T18:28:11.620Z,1.80
2017-08-07T18:30:40.134Z,1.80
2017-08-07T18:33:07.769Z,2.50
2017-08-07T18:35:35.429Z,2.60
2017-08-07T18:38:03.046Z,2.43
2017-08-07T18:40:31.500Z,2.33
2017-08-07T18:43:00.004Z,2.17
2017-08-07T18:45:27.612Z,2.30
2017-08-07T18:47:56.068Z,2.10
2017-08-07T18:50:23.682Z,2.53
2017-08-07T18:52:51.321Z,2.20
2017-08-07T18:55:19.006Z,2.17
2017-08-07T18:57:46.620Z,2.10
2017-08-07T19:00:14.283Z,2.50
2017-08-07T19:02:41.905Z,2.00
2017-08-07T19:05:09.586Z,2.80
2017-08-07T19:07:37.250Z,2.20
2017-08-07T19:10:06.868Z,2.00
2017-08-07T19:12:34.571Z,2.27
2017-08-07T19:15:02.225Z,2.73
2017-08-07T19:17:29.863Z,2.20
2017-08-07T19:19:57.501Z,2.43
2017-08-07T19:22:25.117Z,2.43
2017-08-07T19:24:52.756Z,2.20
2017-08-07T19:27:20.360Z,3.00
2017-08-07T19:29:48.735Z,2.40
2017-08-07T19:32:16.372Z,2.40
2017-08-07T19:34:44.757Z,2.80
2017-08-07T19:37:12.392Z,2.40
2017-08-07T19:39:40.768Z,2.77
2017-08-07T19:42:08.378Z,2.10
2017-08-07T19:44:36.020Z,2.80
2017-08-07T19:47:03.647Z,2.00
2017-08-07T19:49:31.361Z,4.37
2017-08-07T19:51:59.111Z,3.35
2017-08-07T19:54:26.754Z,2.47
2017-08-07T19:56:54.429Z,2.20
2017-08-07T19:59:22.090Z,2.22
2017-08-07T20:01:49.790Z,2.37
2017-08-07T20:04:17.433Z,2.20
2017-08-07T20:06:45.146Z,2.65
2017-08-07T20:09:12.855Z,2.85
2017-08-07T20:11:40.626Z,2.80
2017-08-07T20:14:08.298Z,2.70
2017-08-07T20:16:36.714Z,2.58
2017-08-07T20:19:04.500Z,2.40
2017-08-07T20:21:32.195Z,2.95
2017-08-07T20:23:59.902Z,3.15
2017-08-07T20:26:27.585Z,2.60
2017-08-07T20:28:55.266Z,2.80
2017-08-07T20:31:22.929Z,2.80
2017-08-07T20:33:50.607Z,2.95
2017-08-07T20:36:18.338Z,2.58
2017-08-07T20:38:45.992Z,2.35
2017-08-07T20:41:14.398Z,3.03
2017-08-07T20:43:42.046Z,3.25
2017-08-07T20:46:09.777Z,6.00
2017-08-07T20:48:37.442Z,2.90
2017-08-07T20:51:05.104Z,3.12
2017-08-07T20:53:32.842Z,3.33
2017-08-07T20:56:00.667Z,3.08
2017-08-07T20:58:28.337Z,2.70
2017-08-07T21:00:55.977Z,2.22
2017-08-07T21:03:23.762Z,2.60
2017-08-07T21:05:51.428Z,3.87
2017-08-07T21:08:20.089Z,2.58
2017-08-07T21:10:48.510Z,3.35
2017-08-07T21:13:16.153Z,3.08
2017-08-07T21:15:43.831Z,3.70
2017-08-07T21:18:11.482Z,2.30
2017-08-07T21:20:39.172Z,4.47
2017-08-07T21:23:06.906Z,7.28
2017-08-07T21:25:35.321Z,3.00
2017-08-07T21:28:03.065Z,3.80
2017-08-07T21:30:30.746Z,3.03
2017-08-07T21:32:59.161Z,4.35
2017-08-07T21:35:26.816Z,6.87
2017-08-07T21:37:54.465Z,4.70
2017-08-07T21:40:22.144Z,2.87
2017-08-07T21:42:49.963Z,3.67
2017-08-07T21:45:17.602Z,3.67
2017-08-07T21:47:45.278Z,3.45
2017-08-07T21:50:12.933Z,3.78
2017-08-07T21:52:40.652Z,4.32
2017-08-07T21:55:08.283Z,3.08
2017-08-07T21:57:35.917Z,3.22
2017-08-07T22:00:03.604Z,4.10
2017-08-07T22:02:31.246Z,12.25
2017-08-07T22:04:58.906Z,3.30
2017-08-07T22:07:26.743Z,3.00
2017-08-07T22:09:54.435Z,3.40
2017-08-07T22:12:24.310Z,3.25
2017-08-07T22:14:51.944Z,3.65
2017-08-07T22:17:19.677Z,5.72
2017-08-07T22:19:47.304Z,3.75
2017-08-07T22:22:14.942Z,3.50
2017-08-07T22:24:42.600Z,2.97
2017-08-07T22:27:10.253Z,3.40
2017-08-07T22:29:37.916Z,3.17
2017-08-07T22:32:05.573Z,4.12
2017-08-07T22:34:33.201Z,3.60
2017-08-07T22:37:01.067Z,3.28
2017-08-07T22:39:28.710Z,3.55
2017-08-07T22:41:56.394Z,3.87
2017-08-07T22:44:24.791Z,3.78
2017-08-07T22:46:52.420Z,4.60
2017-08-07T22:49:20.105Z,4.60
2017-08-07T22:51:47.735Z,3.25
2017-08-07T22:54:15.444Z,3.35
2017-08-07T22:56:43.830Z,3.25
2017-08-07T22:59:11.471Z,2.90
2017-08-07T23:01:39.153Z,2.85
2017-08-07T23:04:06.791Z,5.22
2017-08-07T23:06:34.455Z,3.42
2017-08-07T23:09:02.088Z,2.87
2017-08-07T23:11:29.959Z,3.28
2017-08-07T23:13:57.633Z,3.75
2017-08-07T23:16:25.261Z,3.30
2017-08-07T23:18:52.932Z,3.17
2017-08-07T23:21:20.680Z,3.55
2017-08-07T23:23:48.308Z,3.67
2017-08-07T23:26:15.963Z,3.42
2017-08-07T23:28:43.590Z,2.90
2017-08-07T23:31:11.280Z,3.47
2017-08-07T23:33:38.925Z,6.03
2017-08-07T23:36:06.757Z,2.97
2017-08-07T23:38:35.207Z,3.60
2017-08-07T23:41:02.903Z,3.72
2017-08-07T23:43:30.719Z,3.35
2017-08-07T23:45:58.352Z,2.85
2017-08-07T23:48:25.988Z,3.40
2017-08-07T23:50:53.661Z,4.20
2017-08-07T23:53:22.059Z,3.22
2017-08-07T23:55:49.841Z,3.45
2017-08-07T23:58:17.507Z,3.00
